createdAt,value
2023-04-30T00:03:07.597Z,11.60
2023-04-30T00:08:11.411Z,11.55
2023-04-30T00:13:14.339Z,11.51
2023-04-30T00:18:17.325Z,11.53
2023-04-30T00:23:20.532Z,11.48
2023-04-30T00:28:23.545Z,11.31
2023-04-30T00:33:26.595Z,11.21
2023-04-30T00:38:29.551Z,11.13
2023-04-30T00:43:34.512Z,11.00
2023-04-30T00:48:37.614Z,10.92
2023-04-30T00:53:41.482Z,10.60
2023-04-30T00:58:45.837Z,10.48
2023-04-30T01:03:49.158Z,10.53
2023-04-30T01:08:52.667Z,10.54
2023-04-30T01:14:13.639Z,10.44
2023-04-30T01:19:47.462Z,10.09
2023-04-30T01:25:12.423Z,9.89
2023-04-30T01:30:17.333Z,9.74
2023-04-30T01:35:20.859Z,9.67
2023-04-30T01:40:43.431Z,9.66
2023-04-30T01:45:46.367Z,9.73
2023-04-30T01:50:57.022Z,9.78
2023-04-30T01:56:03.408Z,9.71
2023-04-30T02:01:07.043Z,9.77
2023-04-30T02:06:10.075Z,9.72
2023-04-30T02:11:13.137Z,9.66
2023-04-30T02:16:16.185Z,9.60
2023-04-30T02:21:19.554Z,9.41
2023-04-30T02:26:22.666Z,9.37
2023-04-30T02:31:25.921Z,9.22
2023-04-30T02:36:28.985Z,9.13
2023-04-30T02:41:31.886Z,8.99
2023-04-30T02:46:34.896Z,8.87
2023-04-30T02:51:38.126Z,8.69
2023-04-30T02:56:41.824Z,8.58
2023-04-30T03:01:44.884Z,8.43
2023-04-30T03:06:47.940Z,8.31
2023-04-30T03:11:50.860Z,8.32
2023-04-30T03:16:54.261Z,8.32
2023-04-30T03:21:57.275Z,8.33
2023-04-30T03:27:01.405Z,8.37
2023-04-30T03:32:04.805Z,8.80
2023-04-30T03:37:07.840Z,9.78
2023-04-30T03:42:10.844Z,10.45
2023-04-30T03:47:14.559Z,10.83
2023-04-30T03:52:17.668Z,11.52
2023-04-30T03:57:21.525Z,12.36
2023-04-30T04:02:24.666Z,13.30
2023-04-30T04:07:27.819Z,14.49
2023-04-30T04:12:30.826Z,15.50
2023-04-30T04:17:33.753Z,16.44
2023-04-30T04:22:36.849Z,17.45
2023-04-30T04:27:39.856Z,18.40
2023-04-30T04:32:48.558Z,18.95
2023-04-30T04:37:51.596Z,19.57
2023-04-30T04:42:55.815Z,20.06
2023-04-30T04:47:59.041Z,20.41
2023-04-30T04:53:02.038Z,20.96
2023-04-30T04:58:05.145Z,21.40
2023-04-30T05:03:09.682Z,21.68
2023-04-30T05:08:13.104Z,22.03
2023-04-30T05:13:16.006Z,22.48
2023-04-30T05:18:19.669Z,22.98
2023-04-30T05:23:22.638Z,23.14
2023-04-30T05:28:25.741Z,23.16
2023-04-30T05:33:28.850Z,23.28
2023-04-30T05:38:31.959Z,23.13
2023-04-30T05:43:34.962Z,23.23
2023-04-30T05:48:39.218Z,23.48
2023-04-30T05:53:42.217Z,23.59
2023-04-30T05:58:45.634Z,23.62
2023-04-30T06:03:48.943Z,23.93
2023-04-30T06:08:51.946Z,24.34
2023-04-30T06:13:55.157Z,24.67
2023-04-30T06:18:58.268Z,24.87
2023-04-30T06:24:01.279Z,24.85
2023-04-30T06:29:05.201Z,24.76
2023-04-30T06:34:08.215Z,24.81
2023-04-30T06:39:11.218Z,25.10
2023-04-30T06:44:14.325Z,25.14
2023-04-30T06:49:17.435Z,25.13
2023-04-30T06:54:22.996Z,25.09
2023-04-30T06:59:26.109Z,25.34
2023-04-30T07:04:29.215Z,25.35
2023-04-30T07:09:32.324Z,25.51
2023-04-30T07:14:35.335Z,25.70
2023-04-30T07:19:38.441Z,25.76
2023-04-30T07:24:41.546Z,25.87
2023-04-30T07:29:44.449Z,25.96
2023-04-30T07:34:48.172Z,26.06
2023-04-30T07:39:51.182Z,25.81
2023-04-30T07:44:54.285Z,25.68
2023-04-30T07:49:57.753Z,25.61
2023-04-30T07:55:00.914Z,25.33
2023-04-30T08:00:04.547Z,25.14
2023-04-30T08:05:08.025Z,24.92
2023-04-30T08:10:11.084Z,24.98
2023-04-30T08:15:14.284Z,24.81
2023-04-30T08:20:17.798Z,24.57
2023-04-30T08:25:20.907Z,24.15
2023-04-30T08:30:25.209Z,23.43
2023-04-30T08:35:30.128Z,23.21
2023-04-30T08:40:50.230Z,22.81
2023-04-30T08:45:54.882Z,21.87
2023-04-30T08:51:02.348Z,19.28
2023-04-30T08:56:06.551Z,17.20
2023-04-30T09:01:10.636Z,15.92
2023-04-30T09:06:17.646Z,15.08
2023-04-30T09:11:26.003Z,14.58
2023-04-30T09:16:33.221Z,14.20
2023-04-30T09:21:37.557Z,13.95
2023-04-30T09:26:40.697Z,13.95
2023-04-30T09:31:47.454Z,13.93
2023-04-30T09:36:57.557Z,13.82
2023-04-30T09:42:11.154Z,13.88
2023-04-30T09:47:22.059Z,13.97
2023-04-30T09:52:25.531Z,14.10
2023-04-30T09:57:32.529Z,14.17
2023-04-30T10:02:37.302Z,14.07
2023-04-30T10:07:41.592Z,14.10
2023-04-30T10:13:00.614Z,14.16
2023-04-30T10:18:09.278Z,13.97
2023-04-30T10:23:13.087Z,13.81
2023-04-30T10:28:16.284Z,13.70
2023-04-30T10:33:19.222Z,14.01
2023-04-30T10:38:25.238Z,14.27
2023-04-30T10:43:31.135Z,14.43
2023-04-30T10:48:35.772Z,14.71
2023-04-30T10:53:40.391Z,15.14
2023-04-30T10:58:44.292Z,15.29
2023-04-30T11:04:11.962Z,15.21
2023-04-30T11:09:15.249Z,15.50
2023-04-30T11:14:23.169Z,15.58
2023-04-30T11:19:28.158Z,15.34
2023-04-30T11:24:53.682Z,15.34
2023-04-30T11:29:58.284Z,15.36
2023-04-30T11:35:06.234Z,15.56
2023-04-30T11:40:17.016Z,15.73
2023-04-30T11:45:23.512Z,15.76
2023-04-30T11:50:32.958Z,15.54
2023-04-30T11:55:36.280Z,15.17
2023-04-30T12:00:39.590Z,14.84
2023-04-30T12:05:42.801Z,15.02
2023-04-30T12:10:46.010Z,15.25
2023-04-30T12:15:59.594Z,15.10
2023-04-30T12:21:03.812Z,15.05
2023-04-30T12:26:06.801Z,15.12
2023-04-30T12:31:10.319Z,15.05
2023-04-30T12:36:14.046Z,14.92
2023-04-30T12:41:17.729Z,14.87
2023-04-30T12:46:27.984Z,14.62
2023-04-30T12:51:34.942Z,14.66
2023-04-30T12:56:39.085Z,14.80
2023-04-30T13:01:45.794Z,14.68
2023-04-30T13:06:49.719Z,14.39
2023-04-30T13:11:52.800Z,13.98
2023-04-30T13:16:56.220Z,13.75
2023-04-30T13:21:59.337Z,13.54
2023-04-30T13:27:02.893Z,13.75
2023-04-30T13:32:06.261Z,14.00
2023-04-30T13:37:09.581Z,14.15
2023-04-30T13:42:16.933Z,14.05
2023-04-30T13:47:20.016Z,13.91
2023-04-30T13:52:23.209Z,14.00
2023-04-30T13:57:26.882Z,14.41
2023-04-30T14:02:30.114Z,14.82
2023-04-30T14:07:33.205Z,14.83
2023-04-30T14:12:36.427Z,14.91
2023-04-30T14:17:39.779Z,14.81
2023-04-30T14:22:42.778Z,14.77
2023-04-30T14:27:46.194Z,14.95
2023-04-30T14:32:49.222Z,14.62
2023-04-30T14:37:52.308Z,14.40
2023-04-30T14:42:55.418Z,14.61
2023-04-30T14:47:58.469Z,14.80
2023-04-30T14:53:01.539Z,14.69
2023-04-30T14:58:05.500Z,14.34
2023-04-30T15:03:08.998Z,14.20
2023-04-30T15:08:12.502Z,14.09
2023-04-30T15:13:15.708Z,14.04
2023-04-30T15:18:18.719Z,13.99
2023-04-30T15:23:22.032Z,13.95
2023-04-30T15:28:25.241Z,13.79
2023-04-30T15:33:30.538Z,13.60
2023-04-30T15:38:34.057Z,13.28
2023-04-30T15:43:37.120Z,13.03
2023-04-30T15:48:40.131Z,12.85
2023-04-30T15:53:43.141Z,12.65
2023-04-30T15:58:46.354Z,12.51
2023-04-30T16:03:49.856Z,12.43
2023-04-30T16:08:53.905Z,12.24
2023-04-30T16:13:56.881Z,11.98
2023-04-30T16:18:59.926Z,11.72
2023-04-30T16:24:03.180Z,11.51
2023-04-30T16:29:06.457Z,11.32
2023-04-30T16:34:12.846Z,11.15
2023-04-30T16:39:17.251Z,10.90
2023-04-30T16:44:21.408Z,10.63
2023-04-30T16:49:24.618Z,10.43
2023-04-30T16:54:28.027Z,10.21
2023-04-30T16:59:31.242Z,10.00
2023-04-30T17:04:34.660Z,9.85
2023-04-30T17:09:37.858Z,9.69
2023-04-30T17:14:40.762Z,9.54
2023-04-30T17:19:43.980Z,9.34
2023-04-30T17:24:47.934Z,9.16
2023-04-30T17:29:51.116Z,8.99
2023-04-30T17:34:54.133Z,8.79
2023-04-30T17:39:57.459Z,8.58
2023-04-30T17:45:00.960Z,8.40
2023-04-30T17:50:08.593Z,8.23
2023-04-30T17:55:12.001Z,8.02
2023-04-30T18:00:17.573Z,7.85
2023-04-30T18:05:21.163Z,7.63
2023-04-30T18:10:24.309Z,7.41
2023-04-30T18:15:27.916Z,7.20
2023-04-30T18:20:31.020Z,7.02
2023-04-30T18:25:34.541Z,6.86
2023-04-30T18:30:38.599Z,6.74
2023-04-30T18:35:42.189Z,6.60
2023-04-30T18:40:45.293Z,6.49
2023-04-30T18:45:48.512Z,6.40
2023-04-30T18:50:51.618Z,6.28
2023-04-30T18:55:57.603Z,6.13
2023-04-30T19:01:00.860Z,5.97
2023-04-30T19:06:04.247Z,5.83
2023-04-30T19:11:08.676Z,5.64
2023-04-30T19:16:11.696Z,5.47
2023-04-30T19:21:15.118Z,5.29
2023-04-30T19:26:18.205Z,5.10
2023-04-30T19:31:22.896Z,4.97
2023-04-30T19:36:26.160Z,4.85
2023-04-30T19:41:29.363Z,4.72
2023-04-30T19:46:32.481Z,4.58
2023-04-30T19:51:36.088Z,4.44
2023-04-30T19:56:39.506Z,4.29
2023-04-30T20:01:42.587Z,4.15
2023-04-30T20:06:45.782Z,3.96
2023-04-30T20:11:51.095Z,3.77
2023-04-30T20:16:55.284Z,3.60
2023-04-30T20:21:58.536Z,3.45
2023-04-30T20:27:01.749Z,3.27
2023-04-30T20:32:07.359Z,3.14
2023-04-30T20:37:10.409Z,3.79
2023-04-30T20:42:13.740Z,4.76
2023-04-30T20:47:17.071Z,4.86
2023-04-30T20:52:20.372Z,4.90
2023-04-30T20:57:23.572Z,4.99
2023-04-30T21:02:27.565Z,5.15
2023-04-30T21:07:33.069Z,5.26
2023-04-30T21:12:36.076Z,5.32
2023-04-30T21:17:39.343Z,5.24
2023-04-30T21:22:42.605Z,5.14
2023-04-30T21:27:45.808Z,5.04
2023-04-30T21:32:49.299Z,4.89
2023-04-30T21:37:52.671Z,4.79
2023-04-30T21:42:56.077Z,4.68
2023-04-30T21:47:59.322Z,4.64
2023-04-30T21:53:03.484Z,4.59
2023-04-30T21:58:06.727Z,4.51
2023-04-30T22:03:10.421Z,4.42
2023-04-30T22:08:13.440Z,4.35
2023-04-30T22:13:16.651Z,4.28
2023-04-30T22:18:20.222Z,4.23
2023-04-30T22:23:23.381Z,4.19
2023-04-30T22:28:26.489Z,4.08
2023-04-30T22:33:29.497Z,3.98
2023-04-30T22:38:32.914Z,3.83
2023-04-30T22:43:36.333Z,3.75
2023-04-30T22:48:40.217Z,3.78
2023-04-30T22:53:43.474Z,3.82
2023-04-30T22:58:46.986Z,3.82
2023-04-30T23:03:50.153Z,3.80
2023-04-30T23:08:53.418Z,3.77
2023-04-30T23:13:56.619Z,3.76
2023-04-30T23:18:59.836Z,3.74
2023-04-30T23:24:04.576Z,3.72
2023-04-30T23:29:07.999Z,3.68
2023-04-30T23:34:11.517Z,3.65
2023-04-30T23:39:14.922Z,3.59
2023-04-30T23:44:18.456Z,3.55
2023-04-30T23:49:24.761Z,3.54
2023-04-30T23:54:28.355Z,3.57
2023-04-30T23:59:31.461Z,3.47
